createdAt,value
2018-08-22T00:01:42.407Z,98.30
2018-08-22T00:04:12.499Z,99.50
2018-08-22T00:06:41.394Z,99.90
2018-08-22T00:09:10.289Z,99.90
2018-08-22T00:11:39.303Z,99.90
2018-08-22T00:14:08.222Z,99.90
2018-08-22T00:16:37.309Z,99.90
2018-08-22T00:19:06.247Z,99.90
2018-08-22T00:21:35.370Z,99.90
2018-08-22T00:24:04.282Z,99.90
2018-08-22T00:26:33.198Z,99.90
2018-08-22T00:29:02.108Z,99.90
2018-08-22T00:31:31.012Z,99.90
2018-08-22T00:33:59.879Z,99.90
2018-08-22T00:36:28.781Z,99.90
2018-08-22T00:38:57.644Z,99.90
2018-08-22T00:41:26.639Z,99.90
2018-08-22T00:43:57.549Z,99.90
2018-08-22T00:46:26.471Z,99.90
2018-08-22T00:48:55.342Z,99.90
2018-08-22T00:51:24.239Z,99.90
2018-08-22T00:53:53.106Z,99.90
2018-08-22T00:56:22.019Z,99.90
2018-08-22T00:58:50.879Z,99.90
2018-08-22T01:01:19.891Z,99.90
2018-08-22T01:03:48.773Z,99.90
2018-08-22T01:06:17.666Z,99.90
2018-08-22T01:08:46.593Z,99.90
2018-08-22T01:11:15.488Z,99.90
2018-08-22T01:13:44.397Z,99.90
2018-08-22T01:16:13.268Z,99.90
2018-08-22T01:18:42.157Z,99.90
2018-08-22T01:21:11.032Z,99.90
2018-08-22T01:23:39.966Z,99.90
2018-08-22T01:26:08.853Z,99.90
2018-08-22T01:28:37.783Z,99.90
2018-08-22T01:31:06.716Z,99.90
2018-08-22T01:33:35.744Z,99.90
2018-08-22T01:36:04.675Z,99.90
2018-08-22T01:38:33.534Z,99.90
2018-08-22T01:41:02.446Z,99.90
2018-08-22T01:43:31.327Z,99.90
2018-08-22T01:46:00.252Z,99.90
2018-08-22T01:48:29.142Z,99.90
2018-08-22T01:50:58.051Z,99.90
2018-08-22T01:53:26.903Z,99.90
2018-08-22T01:55:55.859Z,99.90
2018-08-22T01:58:24.726Z,99.90
2018-08-22T02:00:53.635Z,99.90
2018-08-22T02:03:22.567Z,99.90
2018-08-22T02:05:51.476Z,99.90
2018-08-22T02:08:20.368Z,99.90
2018-08-22T02:10:49.251Z,99.90
2018-08-22T02:13:18.161Z,99.90
2018-08-22T02:15:47.052Z,99.90
2018-08-22T02:18:15.987Z,99.90
2018-08-22T02:20:44.966Z,99.90
2018-08-22T02:23:13.889Z,99.90
2018-08-22T02:25:42.798Z,99.90
2018-08-22T02:28:11.937Z,99.90
2018-08-22T02:30:40.849Z,99.90
2018-08-22T02:33:09.717Z,99.90
2018-08-22T02:35:38.572Z,99.90
2018-08-22T02:38:07.485Z,99.90
2018-08-22T02:40:36.355Z,99.90
2018-08-22T02:43:05.342Z,99.90
2018-08-22T02:45:34.255Z,99.90
2018-08-22T02:48:03.173Z,99.90
2018-08-22T02:50:32.115Z,99.90
2018-08-22T02:53:01.023Z,99.90
2018-08-22T02:55:29.879Z,99.90
2018-08-22T02:57:58.790Z,99.90
2018-08-22T03:00:27.669Z,99.90
2018-08-22T03:02:56.596Z,99.90
2018-08-22T03:05:25.571Z,99.90
2018-08-22T03:07:54.459Z,99.90
2018-08-22T03:10:23.343Z,99.90
2018-08-22T03:12:52.275Z,99.90
2018-08-22T03:15:21.236Z,99.90
2018-08-22T03:17:50.221Z,99.90
2018-08-22T03:20:19.204Z,99.90
2018-08-22T03:22:48.115Z,99.90
2018-08-22T03:25:16.983Z,99.90
2018-08-22T03:27:45.847Z,99.90
2018-08-22T03:30:14.755Z,99.90
2018-08-22T03:32:43.748Z,99.90
2018-08-22T03:35:12.660Z,99.90
2018-08-22T03:37:41.507Z,99.90
2018-08-22T03:40:10.383Z,99.90
2018-08-22T03:42:39.253Z,99.90
2018-08-22T03:45:08.317Z,99.90
2018-08-22T03:47:37.376Z,99.90
2018-08-22T03:50:06.540Z,99.90
2018-08-22T03:52:35.422Z,99.90
2018-08-22T03:55:04.373Z,99.90
2018-08-22T03:57:33.348Z,99.90
2018-08-22T04:00:02.196Z,99.90
2018-08-22T04:02:31.093Z,99.90
2018-08-22T04:04:59.968Z,99.90
2018-08-22T04:07:28.881Z,99.90
2018-08-22T04:09:57.760Z,99.90
2018-08-22T04:12:26.706Z,99.90
2018-08-22T04:14:55.637Z,99.90
2018-08-22T04:17:36.347Z,99.90
2018-08-22T04:20:05.525Z,99.90
2018-08-22T04:22:34.749Z,99.90
2018-08-22T04:25:03.727Z,99.90
2018-08-22T04:27:32.682Z,99.90
2018-08-22T04:30:01.622Z,99.90
2018-08-22T04:32:30.555Z,99.90
2018-08-22T04:34:59.448Z,99.90
2018-08-22T04:37:28.389Z,99.90
2018-08-22T04:39:57.292Z,99.90
2018-08-22T04:42:26.193Z,98.40
2018-08-22T04:44:55.160Z,98.80
2018-08-22T04:47:24.111Z,98.60
2018-08-22T04:49:53.025Z,97.20
2018-08-22T04:52:21.890Z,95.60
2018-08-22T04:54:50.794Z,93.60
2018-08-22T04:57:19.681Z,91.80
2018-08-22T04:59:48.573Z,91.70
2018-08-22T05:02:17.439Z,89.50
2018-08-22T05:04:46.350Z,87.80
2018-08-22T05:07:15.220Z,88.10
2018-08-22T05:09:44.063Z,86.30
2018-08-22T05:12:12.975Z,84.10
2018-08-22T05:14:41.845Z,84.60
2018-08-22T05:17:10.801Z,83.20
2018-08-22T05:19:39.735Z,79.00
2018-08-22T05:22:08.605Z,77.20
2018-08-22T05:24:37.552Z,71.10
2018-08-22T05:27:06.466Z,68.30
2018-08-22T05:29:35.407Z,66.20
2018-08-22T05:32:04.360Z,63.30
2018-08-22T05:34:33.211Z,62.10
2018-08-22T05:37:02.107Z,61.60
2018-08-22T05:39:31.078Z,60.00
2018-08-22T05:41:59.934Z,58.00
2018-08-22T05:44:28.807Z,54.00
2018-08-22T05:46:57.661Z,53.10
2018-08-22T05:49:26.576Z,54.40
2018-08-22T05:51:55.520Z,54.70
2018-08-22T05:54:24.414Z,55.00
2018-08-22T05:56:53.301Z,54.50
2018-08-22T05:59:22.287Z,52.20
2018-08-22T06:01:51.255Z,52.10
2018-08-22T06:04:20.270Z,53.30
2018-08-22T06:06:49.262Z,52.30
2018-08-22T06:09:18.203Z,51.10
2018-08-22T06:11:47.074Z,43.90
2018-08-22T06:14:16.050Z,34.40
2018-08-22T06:16:44.935Z,29.00
2018-08-22T06:19:13.804Z,26.10
2018-08-22T06:21:42.778Z,24.90
2018-08-22T06:24:11.650Z,23.40
2018-08-22T06:26:40.921Z,22.60
2018-08-22T06:29:09.819Z,20.80
2018-08-22T06:31:38.854Z,20.50
2018-08-22T06:34:07.829Z,20.30
2018-08-22T06:36:36.851Z,20.30
2018-08-22T06:39:08.429Z,18.60
2018-08-22T06:41:37.397Z,17.90
2018-08-22T06:44:06.545Z,16.60
2018-08-22T06:46:35.554Z,15.80
2018-08-22T06:49:04.595Z,15.40
2018-08-22T06:51:33.602Z,14.90
2018-08-22T06:54:02.702Z,14.10
2018-08-22T06:56:31.749Z,14.10
2018-08-22T06:59:00.736Z,14.40
2018-08-22T07:01:29.669Z,13.10
2018-08-22T07:03:58.642Z,13.10
2018-08-22T07:06:27.626Z,12.90
2018-08-22T07:08:56.595Z,13.00
2018-08-22T07:11:25.516Z,12.90
2018-08-22T07:13:54.540Z,12.50
2018-08-22T07:16:23.564Z,12.50
2018-08-22T07:18:52.862Z,12.60
2018-08-22T07:21:21.832Z,12.80
2018-08-22T07:23:50.814Z,12.60
2018-08-22T07:26:19.801Z,11.80
2018-08-22T07:28:48.731Z,12.00
2018-08-22T07:31:17.713Z,12.50
2018-08-22T07:33:46.657Z,11.90
2018-08-22T07:36:15.619Z,10.70
2018-08-22T07:38:44.683Z,9.50
2018-08-22T07:41:13.915Z,8.80
2018-08-22T07:43:43.145Z,8.10
2018-08-22T07:46:12.297Z,8.30
2018-08-22T07:48:41.297Z,8.60
2018-08-22T07:51:10.393Z,8.80
2018-08-22T07:53:39.348Z,9.30
2018-08-22T07:56:08.572Z,9.40
2018-08-22T07:58:37.969Z,8.50
2018-08-22T08:01:07.235Z,8.20
2018-08-22T08:03:36.431Z,7.90
2018-08-22T08:06:05.738Z,7.00
2018-08-22T08:08:34.716Z,8.20
2018-08-22T08:11:03.802Z,8.40
2018-08-22T08:13:32.751Z,9.30
2018-08-22T08:16:01.741Z,8.70
2018-08-22T08:18:30.811Z,8.90
2018-08-22T08:20:59.796Z,9.00
2018-08-22T08:23:28.734Z,9.10
2018-08-22T08:25:57.801Z,9.20
2018-08-22T08:28:26.823Z,8.50
2018-08-22T08:30:55.817Z,8.10
2018-08-22T08:33:24.829Z,7.80
2018-08-22T08:35:53.815Z,7.80
2018-08-22T08:38:22.813Z,7.70
2018-08-22T08:40:51.777Z,8.60
2018-08-22T08:43:20.742Z,10.60
2018-08-22T08:45:49.770Z,10.20
2018-08-22T08:48:18.737Z,9.00
2018-08-22T08:51:03.325Z,8.50
2018-08-22T08:53:32.271Z,8.80
2018-08-22T08:56:01.442Z,9.10
2018-08-22T08:58:30.406Z,9.40
2018-08-22T09:00:59.442Z,9.60
2018-08-22T09:03:28.396Z,9.80
2018-08-22T09:05:57.362Z,10.30
2018-08-22T09:08:26.320Z,10.30
2018-08-22T09:10:55.337Z,10.40
2018-08-22T09:13:24.328Z,11.40
2018-08-22T09:15:53.321Z,10.40
2018-08-22T09:18:22.281Z,9.10
2018-08-22T09:20:51.213Z,8.10
2018-08-22T09:23:20.180Z,7.80
2018-08-22T09:25:49.116Z,8.20
2018-08-22T09:28:19.081Z,9.20
2018-08-22T09:30:48.021Z,11.60
2018-08-22T09:33:16.993Z,13.50
2018-08-22T09:35:46.050Z,16.00
2018-08-22T09:38:15.059Z,17.80
2018-08-22T09:40:44.064Z,18.70
2018-08-22T09:43:13.084Z,20.20
2018-08-22T09:45:43.802Z,21.50
2018-08-22T09:48:12.807Z,21.30
2018-08-22T09:50:41.906Z,23.20
2018-08-22T09:53:10.899Z,23.30
2018-08-22T09:55:39.902Z,23.90
2018-08-22T09:58:10.248Z,23.70
2018-08-22T10:00:45.632Z,23.90
2018-08-22T10:03:15.722Z,24.00
2018-08-22T10:05:44.690Z,22.80
2018-08-22T10:08:13.670Z,22.10
2018-08-22T10:10:42.630Z,21.80
2018-08-22T10:13:11.886Z,22.30
2018-08-22T10:15:40.915Z,21.90
2018-08-22T10:18:09.931Z,21.60
2018-08-22T10:20:39.904Z,21.90
2018-08-22T10:23:08.878Z,21.60
2018-08-22T10:25:37.877Z,21.70
2018-08-22T10:28:06.995Z,22.30
2018-08-22T10:30:35.952Z,22.60
2018-08-22T10:33:05.053Z,22.60
2018-08-22T10:35:34.048Z,22.40
2018-08-22T10:38:03.042Z,22.90
2018-08-22T10:40:32.082Z,22.80
2018-08-22T10:43:01.067Z,22.80
2018-08-22T10:45:30.039Z,22.60
2018-08-22T10:47:59.046Z,22.10
2018-08-22T10:50:28.073Z,22.60
2018-08-22T10:52:57.076Z,23.40
2018-08-22T10:55:26.065Z,23.70
2018-08-22T10:57:55.100Z,24.00
2018-08-22T11:00:24.091Z,24.10
2018-08-22T11:02:53.053Z,24.70
2018-08-22T11:05:21.985Z,25.20
2018-08-22T11:07:51.202Z,24.70
2018-08-22T11:10:20.191Z,24.50
2018-08-22T11:12:49.234Z,24.80
2018-08-22T11:15:18.204Z,24.20
2018-08-22T11:17:47.232Z,23.20
2018-08-22T11:20:16.284Z,22.80
2018-08-22T11:22:56.285Z,22.80
2018-08-22T11:25:36.440Z,22.80
2018-08-22T11:28:16.550Z,23.70
2018-08-22T11:30:56.862Z,23.70
2018-08-22T11:33:37.036Z,23.80
2018-08-22T11:36:04.753Z,24.20
2018-08-22T11:38:33.746Z,24.50
2018-08-22T11:41:02.774Z,24.90
2018-08-22T11:43:31.715Z,24.10
2018-08-22T11:46:00.713Z,24.80
2018-08-22T11:48:29.691Z,24.10
2018-08-22T11:50:58.863Z,24.30
2018-08-22T11:53:27.825Z,23.90
2018-08-22T11:55:56.858Z,23.90
2018-08-22T11:58:25.834Z,24.40
2018-08-22T12:00:54.796Z,24.40
2018-08-22T12:03:23.761Z,24.10
2018-08-22T12:05:52.786Z,24.10
2018-08-22T12:08:21.755Z,23.70
2018-08-22T12:10:50.701Z,23.60
2018-08-22T12:13:19.769Z,24.00
2018-08-22T12:15:48.771Z,24.50
2018-08-22T12:18:17.770Z,24.70
2018-08-22T12:20:46.754Z,25.10
2018-08-22T12:23:15.957Z,24.40
2018-08-22T12:25:45.014Z,23.80
2018-08-22T12:28:14.027Z,24.60
2018-08-22T12:30:43.026Z,24.10
2018-08-22T12:33:12.018Z,23.90
2018-08-22T12:35:40.959Z,23.70
2018-08-22T12:38:09.954Z,23.40
2018-08-22T12:40:38.914Z,23.40
2018-08-22T12:43:07.869Z,23.80
2018-08-22T12:45:36.878Z,23.60
2018-08-22T12:48:06.005Z,23.30
2018-08-22T12:50:35.004Z,22.60
2018-08-22T12:53:04.050Z,22.90
2018-08-22T12:55:33.010Z,23.50
2018-08-22T12:58:01.986Z,23.80
2018-08-22T13:00:30.945Z,23.10
2018-08-22T13:03:00.293Z,23.80
2018-08-22T13:05:29.282Z,24.20
2018-08-22T13:07:58.285Z,24.70
2018-08-22T13:10:27.245Z,24.80
2018-08-22T13:12:56.193Z,24.80
2018-08-22T13:15:25.242Z,24.10
2018-08-22T13:17:54.170Z,24.30
2018-08-22T13:20:23.161Z,23.60
2018-08-22T13:22:52.166Z,23.70
2018-08-22T13:25:21.163Z,23.90
2018-08-22T13:27:50.182Z,24.50
2018-08-22T13:30:19.238Z,23.60
2018-08-22T13:32:48.166Z,23.70
2018-08-22T13:35:17.210Z,23.50
2018-08-22T13:37:46.234Z,23.40
2018-08-22T13:40:15.355Z,24.30
2018-08-22T13:42:44.334Z,24.30
2018-08-22T13:45:13.310Z,23.40
2018-08-22T13:47:42.306Z,23.40
2018-08-22T13:50:12.019Z,23.70
2018-08-22T13:52:41.040Z,23.70
2018-08-22T13:55:09.976Z,23.20
2018-08-22T13:57:38.955Z,23.10
2018-08-22T14:00:08.623Z,23.10
2018-08-22T14:02:37.687Z,23.10
2018-08-22T14:05:06.607Z,22.60
2018-08-22T14:07:35.585Z,22.80
2018-08-22T14:10:04.565Z,23.10
2018-08-22T14:12:33.588Z,23.30
2018-08-22T14:15:02.500Z,23.30
2018-08-22T14:17:31.407Z,23.90
2018-08-22T14:20:00.352Z,23.40
2018-08-22T14:22:29.301Z,23.10
2018-08-22T14:24:58.209Z,23.60
2018-08-22T14:27:27.107Z,22.70
2018-08-22T14:29:56.025Z,23.20
2018-08-22T14:32:24.942Z,23.70
2018-08-22T14:34:53.909Z,23.70
2018-08-22T14:37:22.771Z,24.00
2018-08-22T14:39:51.683Z,24.50
2018-08-22T14:42:20.556Z,24.20
2018-08-22T14:44:49.486Z,24.30
2018-08-22T14:47:18.512Z,24.50
2018-08-22T14:49:47.429Z,24.10
2018-08-22T14:52:16.316Z,23.50
2018-08-22T14:54:45.192Z,23.20
2018-08-22T14:57:14.086Z,23.30
2018-08-22T14:59:42.988Z,23.80
2018-08-22T15:02:11.928Z,23.60
2018-08-22T15:04:40.827Z,24.10
2018-08-22T15:07:09.734Z,24.10
2018-08-22T15:09:38.617Z,24.50
2018-08-22T15:12:07.603Z,24.60
2018-08-22T15:14:36.495Z,24.90
2018-08-22T15:17:20.339Z,24.30
2018-08-22T15:19:49.257Z,24.50
2018-08-22T15:22:18.265Z,24.70
2018-08-22T15:24:47.162Z,24.40
2018-08-22T15:27:16.047Z,24.90
2018-08-22T15:29:44.947Z,24.90
2018-08-22T15:32:13.836Z,24.70
2018-08-22T15:34:49.790Z,25.40
2018-08-22T15:37:18.894Z,25.30
2018-08-22T15:39:48.131Z,25.40
2018-08-22T15:42:17.038Z,25.10
2018-08-22T15:44:45.963Z,25.80
2018-08-22T15:47:15.260Z,25.50
2018-08-22T15:49:45.132Z,25.90
2018-08-22T15:52:14.247Z,25.90
2018-08-22T15:54:43.304Z,25.50
2018-08-22T15:57:12.190Z,25.50
2018-08-22T15:59:41.059Z,25.40
2018-08-22T16:02:09.959Z,25.50
2018-08-22T16:05:00.356Z,25.60
2018-08-22T16:07:29.267Z,25.60
2018-08-22T16:09:58.127Z,25.80
2018-08-22T16:12:27.108Z,25.90
2018-08-22T16:14:55.991Z,26.00
2018-08-22T16:17:24.891Z,26.00
2018-08-22T16:19:53.866Z,26.20
2018-08-22T16:22:22.782Z,26.30
2018-08-22T16:24:51.814Z,26.10
2018-08-22T16:27:20.757Z,25.70
2018-08-22T16:29:49.698Z,26.30
2018-08-22T16:32:18.566Z,26.30
2018-08-22T16:34:47.523Z,26.30
2018-08-22T16:37:18.323Z,25.90
2018-08-22T16:39:47.419Z,25.80
2018-08-22T16:42:19.168Z,26.30
2018-08-22T16:44:48.092Z,26.80
2018-08-22T16:47:17.085Z,26.70
2018-08-22T16:49:46.053Z,26.60
2018-08-22T16:52:14.928Z,26.60
2018-08-22T16:54:43.844Z,27.00
2018-08-22T16:57:12.823Z,26.80
2018-08-22T16:59:41.752Z,26.90
2018-08-22T17:02:10.813Z,26.90
2018-08-22T17:04:39.714Z,27.10
2018-08-22T17:07:13.808Z,27.00
2018-08-22T17:09:42.893Z,27.00
2018-08-22T17:12:11.830Z,27.10
2018-08-22T17:14:40.700Z,27.10
2018-08-22T17:17:09.614Z,27.30
2018-08-22T17:19:38.470Z,27.40
2018-08-22T17:22:07.395Z,27.40
2018-08-22T17:24:36.315Z,27.50
2018-08-22T17:27:05.278Z,28.20
2018-08-22T17:29:34.211Z,27.90
2018-08-22T17:32:06.129Z,28.00
2018-08-22T17:34:35.257Z,28.50
2018-08-22T17:37:09.524Z,28.80
2018-08-22T17:39:38.400Z,29.00
2018-08-22T17:42:07.305Z,29.20
2018-08-22T17:44:36.209Z,29.50
2018-08-22T17:47:05.159Z,29.70
2018-08-22T17:49:34.095Z,30.00
2018-08-22T17:52:07.455Z,30.60
2018-08-22T17:54:37.039Z,30.70
2018-08-22T17:57:27.231Z,31.00
2018-08-22T17:59:57.866Z,30.90
2018-08-22T18:02:26.761Z,31.00
2018-08-22T18:05:00.982Z,31.40
2018-08-22T18:07:30.001Z,31.40
2018-08-22T18:09:58.892Z,31.80
2018-08-22T18:12:28.527Z,31.80
2018-08-22T18:14:59.896Z,32.10
2018-08-22T18:17:28.814Z,32.10
2018-08-22T18:19:57.684Z,32.20
2018-08-22T18:22:31.417Z,32.50
2018-08-22T18:25:00.287Z,32.70
2018-08-22T18:27:29.250Z,32.60
2018-08-22T18:29:58.152Z,32.50
2018-08-22T18:32:27.081Z,32.90
2018-08-22T18:35:05.809Z,32.90
2018-08-22T18:37:34.782Z,33.60
2018-08-22T18:40:11.472Z,33.20
2018-08-22T18:42:40.443Z,32.90
2018-08-22T18:45:09.363Z,33.10
2018-08-22T18:47:38.267Z,33.20
2018-08-22T18:50:07.227Z,33.40
2018-08-22T18:52:36.149Z,33.30
2018-08-22T18:55:05.198Z,33.40
2018-08-22T18:57:34.108Z,33.70
2018-08-22T19:00:06.536Z,33.80
2018-08-22T19:02:35.406Z,33.90
2018-08-22T19:05:22.845Z,34.40
2018-08-22T19:08:02.011Z,34.50
2018-08-22T19:10:32.041Z,34.50
2018-08-22T19:13:06.118Z,34.80
2018-08-22T19:15:35.532Z,35.40
2018-08-22T19:18:19.295Z,35.30
2018-08-22T19:20:48.740Z,35.40
2018-08-22T19:23:17.643Z,35.50
2018-08-22T19:25:48.636Z,35.60
2018-08-22T19:28:17.608Z,35.90
2018-08-22T19:30:46.510Z,35.70
2018-08-22T19:33:17.567Z,36.00
2018-08-22T19:35:46.895Z,35.90
2018-08-22T19:38:16.961Z,36.00
2018-08-22T19:40:45.892Z,36.20
2018-08-22T19:43:14.900Z,36.10
2018-08-22T19:45:43.851Z,36.30
2018-08-22T19:48:12.872Z,36.50
2018-08-22T19:50:41.788Z,36.90
2018-08-22T19:53:10.680Z,37.20
2018-08-22T19:55:39.653Z,37.60
2018-08-22T19:58:08.970Z,38.80
2018-08-22T20:00:37.896Z,38.10
2018-08-22T20:03:06.791Z,38.80
2018-08-22T20:05:56.561Z,39.50
2018-08-22T20:08:30.639Z,39.70
2018-08-22T20:10:59.874Z,40.20
2018-08-22T20:13:39.695Z,40.70
2018-08-22T20:16:08.702Z,40.90
2018-08-22T20:18:37.564Z,41.40
2018-08-22T20:21:06.710Z,41.50
2018-08-22T20:23:35.682Z,42.20
2018-08-22T20:26:04.642Z,42.00
2018-08-22T20:28:34.211Z,42.10
2018-08-22T20:31:07.327Z,42.00
2018-08-22T20:33:36.215Z,42.40
2018-08-22T20:36:05.162Z,42.80
2018-08-22T20:38:34.183Z,42.80
2018-08-22T20:41:08.372Z,43.10
2018-08-22T20:43:37.546Z,43.70
2018-08-22T20:46:06.443Z,44.00
2018-08-22T20:48:36.331Z,44.20
2018-08-22T20:51:05.323Z,44.20
2018-08-22T20:53:34.234Z,44.40
2018-08-22T20:56:03.131Z,44.40
2018-08-22T20:58:32.123Z,44.50
2018-08-22T21:01:01.458Z,45.20
2018-08-22T21:03:30.374Z,45.70
2018-08-22T21:05:59.325Z,46.10
2018-08-22T21:08:28.218Z,46.30
2018-08-22T21:10:57.149Z,46.90
2018-08-22T21:13:28.449Z,47.50
2018-08-22T21:15:57.745Z,47.80
2018-08-22T21:18:26.664Z,48.30
2018-08-22T21:20:55.659Z,48.70
2018-08-22T21:23:24.551Z,49.50
2018-08-22T21:25:53.452Z,50.00
2018-08-22T21:28:34.334Z,50.00
2018-08-22T21:31:03.280Z,50.20
2018-08-22T21:33:32.198Z,50.80
2018-08-22T21:36:02.091Z,51.40
2018-08-22T21:38:30.970Z,51.70
2018-08-22T21:40:59.835Z,52.20
2018-08-22T21:43:28.731Z,52.20
2018-08-22T21:45:57.600Z,52.50
2018-08-22T21:48:27.099Z,52.70
2018-08-22T21:50:55.988Z,52.70
2018-08-22T21:53:24.912Z,53.60
2018-08-22T21:55:54.093Z,53.80
2018-08-22T21:58:23.029Z,53.90
2018-08-22T22:00:51.887Z,54.40
2018-08-22T22:03:26.046Z,54.30
2018-08-22T22:06:02.157Z,54.70
2018-08-22T22:08:31.277Z,55.20
2018-08-22T22:11:03.939Z,55.10
2018-08-22T22:13:32.906Z,55.20
2018-08-22T22:16:03.867Z,55.70
2018-08-22T22:18:33.842Z,55.80
2018-08-22T22:21:15.106Z,56.30
2018-08-22T22:23:45.816Z,56.80
2018-08-22T22:28:50.119Z,57.70
2018-08-22T22:31:18.952Z,57.60
2018-08-22T22:34:07.893Z,58.10
2018-08-22T22:36:36.770Z,59.20
2018-08-22T22:39:42.734Z,59.50
2018-08-22T22:42:17.182Z,60.20
2018-08-22T22:44:49.987Z,61.00
2018-08-22T22:47:24.060Z,61.40
2018-08-22T22:49:53.145Z,61.60
2018-08-22T22:52:44.174Z,61.70
2018-08-22T22:55:13.395Z,62.10
2018-08-22T22:57:43.553Z,62.10
2018-08-22T23:00:14.032Z,62.10
2018-08-22T23:02:43.920Z,62.20
2018-08-22T23:05:12.890Z,62.00
2018-08-22T23:10:16.631Z,62.20
2018-08-22T23:12:46.854Z,62.30
2018-08-22T23:15:24.518Z,63.10
2018-08-22T23:17:55.120Z,63.40
2018-08-22T23:20:42.605Z,63.10
2018-08-22T23:23:42.878Z,63.40
2018-08-22T23:26:17.059Z,63.60
2018-08-22T23:28:46.015Z,64.30
2018-08-22T23:31:18.449Z,64.80
2018-08-22T23:33:47.362Z,64.60
2018-08-22T23:36:16.226Z,65.10
2018-08-22T23:38:45.138Z,65.10
2018-08-22T23:41:14.018Z,65.90
2018-08-22T23:43:48.308Z,66.50
2018-08-22T23:46:17.179Z,67.40
2018-08-22T23:48:50.660Z,67.40
2018-08-22T23:51:19.565Z,67.80
2018-08-22T23:53:49.006Z,68.30
2018-08-22T23:56:23.911Z,68.70
2018-08-22T23:58:53.393Z,69.40
